sensor_id;sensor_type;location;lat;lon;timestamp;P1;durP1;ratioP1;P2;durP2;ratioP2
67554;SDS011;54385;53.516;49.456;2023-04-02T00:00:31;5.72;;;2.30;;
67554;SDS011;54385;53.516;49.456;2023-04-02T00:03:05;3.95;;;2.50;;
67554;SDS011;54385;53.516;49.456;2023-04-02T00:05:39;6.78;;;2.03;;
67554;SDS011;54385;53.516;49.456;2023-04-02T00:08:27;6.05;;;2.40;;
67554;SDS011;54385;53.516;49.456;2023-04-02T00:11:03;2.53;;;2.17;;
67554;SDS011;54385;53.516;49.456;2023-04-02T00:13:32;5.07;;;2.08;;
67554;SDS011;54385;53.516;49.456;2023-04-02T00:15:59;3.85;;;2.28;;
67554;SDS011;54385;53.516;49.456;2023-04-02T00:18:28;5.45;;;2.53;;
67554;SDS011;54385;53.516;49.456;2023-04-02T00:20:59;6.32;;;2.63;;
67554;SDS011;54385;53.516;49.456;2023-04-02T00:23:45;5.97;;;2.50;;
67554;SDS011;54385;53.516;49.456;2023-04-02T00:26:30;7.55;;;2.00;;
67554;SDS011;54385;53.516;49.456;2023-04-02T00:29:03;5.97;;;2.10;;
67554;SDS011;54385;53.516;49.456;2023-04-02T00:31:31;7.75;;;2.20;;
67554;SDS011;54385;53.516;49.456;2023-04-02T00:33:59;4.60;;;2.53;;
67554;SDS011;54385;53.516;49.456;2023-04-02T00:36:30;6.60;;;2.35;;
67554;SDS011;54385;53.516;49.456;2023-04-02T00:39:01;7.38;;;3.67;;
67554;SDS011;54385;53.516;49.456;2023-04-02T00:41:33;6.82;;;2.63;;
67554;SDS011;54385;53.516;49.456;2023-04-02T00:44:03;5.35;;;2.60;;
67554;SDS011;54385;53.516;49.456;2023-04-02T00:46:32;6.85;;;2.28;;
67554;SDS011;54385;53.516;49.456;2023-04-02T00:49:16;5.55;;;2.72;;
67554;SDS011;54385;53.516;49.456;2023-04-02T00:52:18;6.57;;;2.40;;
67554;SDS011;54385;53.516;49.456;2023-04-02T00:54:53;7.57;;;2.70;;
67554;SDS011;54385;53.516;49.456;2023-04-02T00:57:42;4.43;;;1.98;;
67554;SDS011;54385;53.516;49.456;2023-04-02T01:00:26;5.40;;;2.33;;
67554;SDS011;54385;53.516;49.456;2023-04-02T01:05:46;7.90;;;3.00;;
67554;SDS011;54385;53.516;49.456;2023-04-02T01:08:22;5.15;;;2.17;;
67554;SDS011;54385;53.516;49.456;2023-04-02T01:17:02;7.55;;;3.03;;
67554;SDS011;54385;53.516;49.456;2023-04-02T01:20:16;8.63;;;2.75;;
67554;SDS011;54385;53.516;49.456;2023-04-02T01:25:39;8.73;;;2.50;;
67554;SDS011;54385;53.516;49.456;2023-04-02T01:28:19;4.90;;;2.78;;
67554;SDS011;54385;53.516;49.456;2023-04-02T01:30:54;6.68;;;3.05;;
67554;SDS011;54385;53.516;49.456;2023-04-02T01:33:23;8.65;;;3.85;;
67554;SDS011;54385;53.516;49.456;2023-04-02T01:36:02;10.57;;;4.72;;
67554;SDS011;54385;53.516;49.456;2023-04-02T01:38:42;9.48;;;3.25;;
67554;SDS011;54385;53.516;49.456;2023-04-02T01:43:57;8.23;;;3.90;;
67554;SDS011;54385;53.516;49.456;2023-04-02T01:46:29;7.25;;;3.30;;
67554;SDS011;54385;53.516;49.456;2023-04-02T01:48:59;7.03;;;3.13;;
67554;SDS011;54385;53.516;49.456;2023-04-02T01:51:32;10.90;;;3.55;;
67554;SDS011;54385;53.516;49.456;2023-04-02T01:54:00;6.03;;;3.22;;
67554;SDS011;54385;53.516;49.456;2023-04-02T01:56:28;5.82;;;2.67;;
67554;SDS011;54385;53.516;49.456;2023-04-02T01:58:56;6.57;;;3.30;;
67554;SDS011;54385;53.516;49.456;2023-04-02T02:01:24;7.15;;;2.95;;
67554;SDS011;54385;53.516;49.456;2023-04-02T02:03:56;3.95;;;2.78;;
67554;SDS011;54385;53.516;49.456;2023-04-02T02:08:59;5.32;;;3.60;;
67554;SDS011;54385;53.516;49.456;2023-04-02T02:11:30;9.00;;;4.00;;
67554;SDS011;54385;53.516;49.456;2023-04-02T02:13:59;8.38;;;3.20;;
67554;SDS011;54385;53.516;49.456;2023-04-02T02:16:28;6.13;;;3.72;;
67554;SDS011;54385;53.516;49.456;2023-04-02T02:18:57;11.95;;;3.70;;
67554;SDS011;54385;53.516;49.456;2023-04-02T02:21:34;13.98;;;3.70;;
67554;SDS011;54385;53.516;49.456;2023-04-02T02:24:18;31.73;;;4.63;;
67554;SDS011;54385;53.516;49.456;2023-04-02T02:26:49;16.50;;;3.40;;
67554;SDS011;54385;53.516;49.456;2023-04-02T02:29:37;12.98;;;2.90;;
67554;SDS011;54385;53.516;49.456;2023-04-02T02:32:05;14.52;;;3.47;;
67554;SDS011;54385;53.516;49.456;2023-04-02T02:34:38;32.03;;;6.25;;
67554;SDS011;54385;53.516;49.456;2023-04-02T02:37:13;16.02;;;3.45;;
67554;SDS011;54385;53.516;49.456;2023-04-02T02:39:48;18.90;;;3.30;;
67554;SDS011;54385;53.516;49.456;2023-04-02T02:42:30;10.80;;;2.70;;
67554;SDS011;54385;53.516;49.456;2023-04-02T02:45:02;8.52;;;2.72;;
67554;SDS011;54385;53.516;49.456;2023-04-02T02:47:35;9.30;;;2.72;;
67554;SDS011;54385;53.516;49.456;2023-04-02T02:50:10;8.27;;;3.15;;
67554;SDS011;54385;53.516;49.456;2023-04-02T02:52:45;10.82;;;2.88;;
67554;SDS011;54385;53.516;49.456;2023-04-02T02:55:18;8.63;;;3.03;;
67554;SDS011;54385;53.516;49.456;2023-04-02T02:58:17;8.23;;;2.88;;
67554;SDS011;54385;53.516;49.456;2023-04-02T03:00:48;3.53;;;2.40;;
67554;SDS011;54385;53.516;49.456;2023-04-02T03:03:19;5.80;;;2.83;;
67554;SDS011;54385;53.516;49.456;2023-04-02T03:05:52;5.97;;;2.80;;
67554;SDS011;54385;53.516;49.456;2023-04-02T03:08:24;6.72;;;2.92;;
67554;SDS011;54385;53.516;49.456;2023-04-02T03:11:04;5.30;;;2.67;;
67554;SDS011;54385;53.516;49.456;2023-04-02T03:13:51;5.03;;;2.83;;
67554;SDS011;54385;53.516;49.456;2023-04-02T03:16:28;6.85;;;4.20;;
67554;SDS011;54385;53.516;49.456;2023-04-02T03:18:58;9.80;;;4.63;;
67554;SDS011;54385;53.516;49.456;2023-04-02T03:21:47;8.05;;;4.72;;
67554;SDS011;54385;53.516;49.456;2023-04-02T03:24:34;9.10;;;4.90;;
67554;SDS011;54385;53.516;49.456;2023-04-02T03:29:57;8.70;;;4.75;;
67554;SDS011;54385;53.516;49.456;2023-04-02T03:32:44;6.10;;;3.70;;
67554;SDS011;54385;53.516;49.456;2023-04-02T03:37:48;6.28;;;3.35;;
67554;SDS011;54385;53.516;49.456;2023-04-02T03:40:24;7.22;;;2.45;;
67554;SDS011;54385;53.516;49.456;2023-04-02T03:43:03;4.40;;;2.65;;
67554;SDS011;54385;53.516;49.456;2023-04-02T03:45:47;3.83;;;2.53;;
67554;SDS011;54385;53.516;49.456;2023-04-02T03:51:04;4.93;;;3.00;;
67554;SDS011;54385;53.516;49.456;2023-04-02T03:53:37;7.53;;;4.22;;
67554;SDS011;54385;53.516;49.456;2023-04-02T03:56:04;11.02;;;5.40;;
67554;SDS011;54385;53.516;49.456;2023-04-02T03:58:40;11.02;;;5.72;;
67554;SDS011;54385;53.516;49.456;2023-04-02T04:01:28;12.15;;;5.97;;
67554;SDS011;54385;53.516;49.456;2023-04-02T04:04:06;6.32;;;4.07;;
67554;SDS011;54385;53.516;49.456;2023-04-02T04:06:45;6.03;;;3.22;;
67554;SDS011;54385;53.516;49.456;2023-04-02T04:09:17;3.55;;;1.83;;
67554;SDS011;54385;53.516;49.456;2023-04-02T04:11:48;2.70;;;1.90;;
67554;SDS011;54385;53.516;49.456;2023-04-02T04:14:20;2.80;;;1.85;;
67554;SDS011;54385;53.516;49.456;2023-04-02T04:17:03;4.63;;;2.15;;
67554;SDS011;54385;53.516;49.456;2023-04-02T04:19:53;6.15;;;2.28;;
67554;SDS011;54385;53.516;49.456;2023-04-02T04:22:32;3.72;;;2.20;;
67554;SDS011;54385;53.516;49.456;2023-04-02T04:25:00;4.57;;;2.80;;
67554;SDS011;54385;53.516;49.456;2023-04-02T04:27:34;6.57;;;3.15;;
67554;SDS011;54385;53.516;49.456;2023-04-02T04:32:47;4.22;;;2.10;;
67554;SDS011;54385;53.516;49.456;2023-04-02T04:38:11;6.63;;;3.10;;
67554;SDS011;54385;53.516;49.456;2023-04-02T04:40:44;5.90;;;3.10;;
67554;SDS011;54385;53.516;49.456;2023-04-02T04:43:18;6.20;;;3.40;;
67554;SDS011;54385;53.516;49.456;2023-04-02T04:45:55;8.15;;;3.63;;
67554;SDS011;54385;53.516;49.456;2023-04-02T04:51:16;12.00;;;5.20;;
67554;SDS011;54385;53.516;49.456;2023-04-02T04:53:51;11.95;;;6.28;;
67554;SDS011;54385;53.516;49.456;2023-04-02T04:56:24;12.85;;;5.57;;
67554;SDS011;54385;53.516;49.456;2023-04-02T05:01:51;13.48;;;7.38;;
67554;SDS011;54385;53.516;49.456;2023-04-02T05:12:26;11.90;;;5.10;;
67554;SDS011;54385;53.516;49.456;2023-04-02T05:17:43;9.57;;;4.63;;
67554;SDS011;54385;53.516;49.456;2023-04-02T05:20:14;9.23;;;5.45;;
67554;SDS011;54385;53.516;49.456;2023-04-02T05:23:09;8.40;;;4.65;;
67554;SDS011;54385;53.516;49.456;2023-04-02T05:28:46;6.93;;;4.00;;
67554;SDS011;54385;53.516;49.456;2023-04-02T05:31:41;9.90;;;5.57;;
67554;SDS011;54385;53.516;49.456;2023-04-02T05:34:11;7.38;;;4.78;;
67554;SDS011;54385;53.516;49.456;2023-04-02T05:36:38;8.40;;;4.90;;
67554;SDS011;54385;53.516;49.456;2023-04-02T05:39:09;7.75;;;4.18;;
67554;SDS011;54385;53.516;49.456;2023-04-02T05:41:38;7.20;;;4.13;;
67554;SDS011;54385;53.516;49.456;2023-04-02T05:44:18;6.97;;;4.18;;
67554;SDS011;54385;53.516;49.456;2023-04-02T05:46:58;7.32;;;4.30;;
67554;SDS011;54385;53.516;49.456;2023-04-02T05:49:50;7.28;;;3.42;;
67554;SDS011;54385;53.516;49.456;2023-04-02T05:52:26;6.43;;;3.70;;
67554;SDS011;54385;53.516;49.456;2023-04-02T05:54:58;9.18;;;4.15;;
67554;SDS011;54385;53.516;49.456;2023-04-02T05:57:52;6.40;;;4.28;;
67554;SDS011;54385;53.516;49.456;2023-04-02T06:00:38;9.00;;;5.57;;
67554;SDS011;54385;53.516;49.456;2023-04-02T06:05:48;10.10;;;3.58;;
67554;SDS011;54385;53.516;49.456;2023-04-02T06:08:19;6.70;;;3.53;;
67554;SDS011;54385;53.516;49.456;2023-04-02T06:10:51;5.50;;;3.33;;
67554;SDS011;54385;53.516;49.456;2023-04-02T06:13:33;5.10;;;2.50;;
67554;SDS011;54385;53.516;49.456;2023-04-02T06:16:00;6.78;;;2.70;;
67554;SDS011;54385;53.516;49.456;2023-04-02T06:18:31;4.60;;;2.58;;
67554;SDS011;54385;53.516;49.456;2023-04-02T06:21:00;5.00;;;2.97;;
67554;SDS011;54385;53.516;49.456;2023-04-02T06:31:27;5.63;;;2.05;;
67554;SDS011;54385;53.516;49.456;2023-04-02T06:34:18;3.70;;;2.05;;
67554;SDS011;54385;53.516;49.456;2023-04-02T06:36:49;3.83;;;1.88;;
67554;SDS011;54385;53.516;49.456;2023-04-02T06:39:21;4.68;;;1.95;;
67554;SDS011;54385;53.516;49.456;2023-04-02T06:42:09;1.80;;;1.30;;
67554;SDS011;54385;53.516;49.456;2023-04-02T06:44:39;3.97;;;1.98;;
67554;SDS011;54385;53.516;49.456;2023-04-02T06:47:10;3.38;;;2.20;;
67554;SDS011;54385;53.516;49.456;2023-04-02T06:49:48;7.40;;;3.08;;
67554;SDS011;54385;53.516;49.456;2023-04-02T06:52:40;3.28;;;1.75;;
67554;SDS011;54385;53.516;49.456;2023-04-02T06:55:23;8.55;;;3.22;;
67554;SDS011;54385;53.516;49.456;2023-04-02T06:57:54;5.47;;;2.30;;
67554;SDS011;54385;53.516;49.456;2023-04-02T07:00:25;5.25;;;2.33;;
67554;SDS011;54385;53.516;49.456;2023-04-02T07:03:06;12.20;;;3.22;;
67554;SDS011;54385;53.516;49.456;2023-04-02T07:05:38;5.13;;;1.90;;
67554;SDS011;54385;53.516;49.456;2023-04-02T07:08:04;4.35;;;2.17;;
67554;SDS011;54385;53.516;49.456;2023-04-02T07:10:32;8.95;;;2.35;;
67554;SDS011;54385;53.516;49.456;2023-04-02T07:12:59;5.65;;;2.10;;
67554;SDS011;54385;53.516;49.456;2023-04-02T07:15:27;6.85;;;3.55;;
67554;SDS011;54385;53.516;49.456;2023-04-02T07:17:53;4.88;;;2.08;;
67554;SDS011;54385;53.516;49.456;2023-04-02T07:20:30;4.38;;;1.75;;
67554;SDS011;54385;53.516;49.456;2023-04-02T07:23:06;4.65;;;1.65;;
67554;SDS011;54385;53.516;49.456;2023-04-02T07:25:32;4.63;;;1.50;;
67554;SDS011;54385;53.516;49.456;2023-04-02T07:27:59;6.70;;;1.42;;
67554;SDS011;54385;53.516;49.456;2023-04-02T07:30:26;6.07;;;2.17;;
67554;SDS011;54385;53.516;49.456;2023-04-02T07:32:52;2.83;;;1.90;;
67554;SDS011;54385;53.516;49.456;2023-04-02T07:35:18;9.52;;;2.50;;
67554;SDS011;54385;53.516;49.456;2023-04-02T07:37:45;7.47;;;1.98;;
67554;SDS011;54385;53.516;49.456;2023-04-02T07:40:16;3.88;;;2.30;;
67554;SDS011;54385;53.516;49.456;2023-04-02T07:42:45;4.95;;;1.90;;
67554;SDS011;54385;53.516;49.456;2023-04-02T07:45:12;4.22;;;1.85;;
67554;SDS011;54385;53.516;49.456;2023-04-02T07:47:39;10.30;;;2.25;;
67554;SDS011;54385;53.516;49.456;2023-04-02T07:50:05;5.20;;;2.47;;
67554;SDS011;54385;53.516;49.456;2023-04-02T07:52:33;5.00;;;2.35;;
67554;SDS011;54385;53.516;49.456;2023-04-02T07:55:08;3.30;;;2.00;;
67554;SDS011;54385;53.516;49.456;2023-04-02T07:57:37;5.88;;;2.30;;
67554;SDS011;54385;53.516;49.456;2023-04-02T08:00:14;4.35;;;2.00;;
67554;SDS011;54385;53.516;49.456;2023-04-02T08:02:41;4.25;;;2.38;;
67554;SDS011;54385;53.516;49.456;2023-04-02T08:05:07;3.63;;;1.90;;
67554;SDS011;54385;53.516;49.456;2023-04-02T08:07:35;4.68;;;2.05;;
67554;SDS011;54385;53.516;49.456;2023-04-02T08:10:02;5.55;;;1.90;;
67554;SDS011;54385;53.516;49.456;2023-04-02T08:12:29;9.15;;;1.88;;
67554;SDS011;54385;53.516;49.456;2023-04-02T08:14:56;3.20;;;1.80;;
67554;SDS011;54385;53.516;49.456;2023-04-02T08:17:22;3.88;;;1.77;;
67554;SDS011;54385;53.516;49.456;2023-04-02T08:19:49;4.68;;;1.88;;
67554;SDS011;54385;53.516;49.456;2023-04-02T08:22:15;5.78;;;1.80;;
67554;SDS011;54385;53.516;49.456;2023-04-02T08:24:42;3.80;;;1.80;;
67554;SDS011;54385;53.516;49.456;2023-04-02T08:27:10;4.95;;;1.90;;
67554;SDS011;54385;53.516;49.456;2023-04-02T08:29:39;4.05;;;1.90;;
67554;SDS011;54385;53.516;49.456;2023-04-02T08:32:06;3.85;;;2.72;;
67554;SDS011;54385;53.516;49.456;2023-04-02T08:34:32;5.43;;;2.00;;
67554;SDS011;54385;53.516;49.456;2023-04-02T08:36:58;7.70;;;1.98;;
67554;SDS011;54385;53.516;49.456;2023-04-02T08:39:25;6.82;;;1.95;;
67554;SDS011;54385;53.516;49.456;2023-04-02T08:42:13;4.30;;;2.20;;
67554;SDS011;54385;53.516;49.456;2023-04-02T08:47:38;5.38;;;1.70;;
67554;SDS011;54385;53.516;49.456;2023-04-02T08:53:04;5.07;;;1.75;;
67554;SDS011;54385;53.516;49.456;2023-04-02T08:55:38;7.35;;;1.85;;
67554;SDS011;54385;53.516;49.456;2023-04-02T09:00:55;3.42;;;1.60;;
67554;SDS011;54385;53.516;49.456;2023-04-02T09:06:08;5.38;;;1.92;;
67554;SDS011;54385;53.516;49.456;2023-04-02T09:08:38;6.18;;;2.03;;
67554;SDS011;54385;53.516;49.456;2023-04-02T09:11:07;3.53;;;1.50;;
67554;SDS011;54385;53.516;49.456;2023-04-02T09:13:40;5.18;;;1.73;;
67554;SDS011;54385;53.516;49.456;2023-04-02T09:16:12;11.05;;;1.80;;
67554;SDS011;54385;53.516;49.456;2023-04-02T09:18:40;5.38;;;2.10;;
67554;SDS011;54385;53.516;49.456;2023-04-02T09:23:59;4.30;;;2.80;;
67554;SDS011;54385;53.516;49.456;2023-04-02T09:26:27;4.88;;;2.03;;
67554;SDS011;54385;53.516;49.456;2023-04-02T09:31:38;17.52;;;2.95;;
67554;SDS011;54385;53.516;49.456;2023-04-02T09:34:28;7.65;;;1.63;;
67554;SDS011;54385;53.516;49.456;2023-04-02T09:37:20;6.85;;;1.80;;
67554;SDS011;54385;53.516;49.456;2023-04-02T09:39:50;5.88;;;1.65;;
67554;SDS011;54385;53.516;49.456;2023-04-02T09:42:32;4.38;;;1.70;;
67554;SDS011;54385;53.516;49.456;2023-04-02T09:47:47;5.47;;;1.80;;
67554;SDS011;54385;53.516;49.456;2023-04-02T09:52:48;11.07;;;1.88;;
67554;SDS011;54385;53.516;49.456;2023-04-02T09:55:21;5.55;;;1.50;;
67554;SDS011;54385;53.516;49.456;2023-04-02T09:58:09;12.68;;;2.00;;
67554;SDS011;54385;53.516;49.456;2023-04-02T10:00:48;11.75;;;2.47;;
67554;SDS011;54385;53.516;49.456;2023-04-02T10:05:46;7.82;;;1.70;;
67554;SDS011;54385;53.516;49.456;2023-04-02T10:10:51;5.25;;;1.60;;
67554;SDS011;54385;53.516;49.456;2023-04-02T10:13:23;7.65;;;1.80;;
67554;SDS011;54385;53.516;49.456;2023-04-02T10:16:03;9.02;;;1.60;;
67554;SDS011;54385;53.516;49.456;2023-04-02T10:21:24;11.63;;;1.73;;
67554;SDS011;54385;53.516;49.456;2023-04-02T10:23:55;4.85;;;1.38;;
67554;SDS011;54385;53.516;49.456;2023-04-02T10:26:30;7.45;;;1.50;;
67554;SDS011;54385;53.516;49.456;2023-04-02T10:29:19;13.75;;;2.25;;
67554;SDS011;54385;53.516;49.456;2023-04-02T10:34:42;6.63;;;1.83;;
67554;SDS011;54385;53.516;49.456;2023-04-02T10:40:13;8.05;;;2.03;;
67554;SDS011;54385;53.516;49.456;2023-04-02T10:54:29;11.90;;;1.95;;
67554;SDS011;54385;53.516;49.456;2023-04-02T10:57:07;9.55;;;1.63;;
67554;SDS011;54385;53.516;49.456;2023-04-02T10:59:56;7.75;;;1.80;;
67554;SDS011;54385;53.516;49.456;2023-04-02T11:02:47;16.35;;;3.00;;
67554;SDS011;54385;53.516;49.456;2023-04-02T11:05:21;17.95;;;5.78;;
67554;SDS011;54385;53.516;49.456;2023-04-02T11:07:56;6.45;;;2.00;;
67554;SDS011;54385;53.516;49.456;2023-04-02T11:10:27;16.05;;;2.40;;
67554;SDS011;54385;53.516;49.456;2023-04-02T11:12:59;9.63;;;1.80;;
67554;SDS011;54385;53.516;49.456;2023-04-02T11:15:40;11.93;;;2.33;;
67554;SDS011;54385;53.516;49.456;2023-04-02T11:18:18;7.10;;;2.30;;
67554;SDS011;54385;53.516;49.456;2023-04-02T11:23:29;15.18;;;2.65;;
67554;SDS011;54385;53.516;49.456;2023-04-02T11:29:16;10.68;;;2.10;;
67554;SDS011;54385;53.516;49.456;2023-04-02T11:31:46;8.48;;;1.67;;
67554;SDS011;54385;53.516;49.456;2023-04-02T11:34:15;11.75;;;1.77;;
67554;SDS011;54385;53.516;49.456;2023-04-02T11:37:08;16.05;;;2.47;;
67554;SDS011;54385;53.516;49.456;2023-04-02T11:39:54;10.15;;;2.40;;
67554;SDS011;54385;53.516;49.456;2023-04-02T11:42:24;8.40;;;1.77;;
67554;SDS011;54385;53.516;49.456;2023-04-02T11:44:55;7.53;;;2.40;;
67554;SDS011;54385;53.516;49.456;2023-04-02T11:47:48;8.15;;;2.03;;
67554;SDS011;54385;53.516;49.456;2023-04-02T11:50:41;20.00;;;2.20;;
67554;SDS011;54385;53.516;49.456;2023-04-02T11:55:37;10.10;;;2.33;;
67554;SDS011;54385;53.516;49.456;2023-04-02T12:01:14;8.75;;;2.20;;
67554;SDS011;54385;53.516;49.456;2023-04-02T12:06:40;11.65;;;2.60;;
67554;SDS011;54385;53.516;49.456;2023-04-02T12:14:56;12.35;;;2.08;;
67554;SDS011;54385;53.516;49.456;2023-04-02T12:22:38;11.15;;;2.50;;
67554;SDS011;54385;53.516;49.456;2023-04-02T12:28:02;31.77;;;4.05;;
67554;SDS011;54385;53.516;49.456;2023-04-02T12:30:32;12.32;;;2.67;;
67554;SDS011;54385;53.516;49.456;2023-04-02T12:35:47;11.15;;;3.10;;
67554;SDS011;54385;53.516;49.456;2023-04-02T12:38:22;10.00;;;3.20;;
67554;SDS011;54385;53.516;49.456;2023-04-02T12:41:05;12.63;;;2.50;;
67554;SDS011;54385;53.516;49.456;2023-04-02T12:44:33;12.10;;;2.47;;
67554;SDS011;54385;53.516;49.456;2023-04-02T12:46:40;14.38;;;2.20;;
67554;SDS011;54385;53.516;49.456;2023-04-02T12:51:45;10.80;;;1.98;;
67554;SDS011;54385;53.516;49.456;2023-04-02T12:54:14;9.77;;;1.77;;
67554;SDS011;54385;53.516;49.456;2023-04-02T12:56:47;11.02;;;2.13;;
67554;SDS011;54385;53.516;49.456;2023-04-02T12:59:33;6.30;;;1.90;;
67554;SDS011;54385;53.516;49.456;2023-04-02T13:02:02;12.60;;;2.13;;
67554;SDS011;54385;53.516;49.456;2023-04-02T13:04:45;10.23;;;1.80;;
67554;SDS011;54385;53.516;49.456;2023-04-02T13:07:17;12.23;;;2.63;;
67554;SDS011;54385;53.516;49.456;2023-04-02T13:09:49;10.30;;;2.95;;
67554;SDS011;54385;53.516;49.456;2023-04-02T13:14:57;15.60;;;2.60;;
67554;SDS011;54385;53.516;49.456;2023-04-02T13:22:56;9.63;;;2.17;;
67554;SDS011;54385;53.516;49.456;2023-04-02T13:25:28;13.90;;;2.70;;
67554;SDS011;54385;53.516;49.456;2023-04-02T13:27:56;5.82;;;1.90;;
67554;SDS011;54385;53.516;49.456;2023-04-02T13:30:24;10.45;;;2.33;;
67554;SDS011;54385;53.516;49.456;2023-04-02T13:32:53;7.35;;;2.00;;
67554;SDS011;54385;53.516;49.456;2023-04-02T13:35:19;11.95;;;2.25;;
67554;SDS011;54385;53.516;49.456;2023-04-02T13:37:46;14.20;;;2.17;;
67554;SDS011;54385;53.516;49.456;2023-04-02T13:40:14;8.90;;;1.80;;
67554;SDS011;54385;53.516;49.456;2023-04-02T13:42:44;12.77;;;2.08;;
67554;SDS011;54385;53.516;49.456;2023-04-02T13:50:17;13.57;;;1.70;;
67554;SDS011;54385;53.516;49.456;2023-04-02T13:52:51;16.40;;;2.33;;
67554;SDS011;54385;53.516;49.456;2023-04-02T13:55:19;9.93;;;1.90;;
67554;SDS011;54385;53.516;49.456;2023-04-02T13:57:50;11.32;;;1.88;;
67554;SDS011;54385;53.516;49.456;2023-04-02T14:00:16;13.77;;;2.70;;
67554;SDS011;54385;53.516;49.456;2023-04-02T14:02:45;5.20;;;1.55;;
67554;SDS011;54385;53.516;49.456;2023-04-02T14:08:21;10.30;;;1.95;;
67554;SDS011;54385;53.516;49.456;2023-04-02T14:19:30;9.57;;;1.83;;
67554;SDS011;54385;53.516;49.456;2023-04-02T14:30:29;9.95;;;2.60;;
67554;SDS011;54385;53.516;49.456;2023-04-02T14:33:22;6.85;;;2.10;;
67554;SDS011;54385;53.516;49.456;2023-04-02T14:36:11;5.43;;;1.80;;
67554;SDS011;54385;53.516;49.456;2023-04-02T14:39:23;9.55;;;1.80;;
67554;SDS011;54385;53.516;49.456;2023-04-02T14:42:05;6.40;;;1.70;;
67554;SDS011;54385;53.516;49.456;2023-04-02T14:44:40;5.22;;;1.67;;
67554;SDS011;54385;53.516;49.456;2023-04-02T14:47:20;10.85;;;1.85;;
67554;SDS011;54385;53.516;49.456;2023-04-02T14:49:55;8.10;;;1.40;;
67554;SDS011;54385;53.516;49.456;2023-04-02T14:52:32;4.82;;;1.63;;
67554;SDS011;54385;53.516;49.456;2023-04-02T14:55:04;7.38;;;1.40;;
67554;SDS011;54385;53.516;49.456;2023-04-02T14:57:36;7.43;;;2.03;;
67554;SDS011;54385;53.516;49.456;2023-04-02T15:03:05;6.93;;;1.48;;
67554;SDS011;54385;53.516;49.456;2023-04-02T15:05:51;8.05;;;2.00;;
67554;SDS011;54385;53.516;49.456;2023-04-02T15:08:38;9.75;;;1.95;;
67554;SDS011;54385;53.516;49.456;2023-04-02T15:11:24;12.15;;;1.95;;
67554;SDS011;54385;53.516;49.456;2023-04-02T15:14:03;8.65;;;1.65;;
67554;SDS011;54385;53.516;49.456;2023-04-02T15:16:41;25.25;;;2.80;;
67554;SDS011;54385;53.516;49.456;2023-04-02T15:19:14;9.40;;;2.92;;
67554;SDS011;54385;53.516;49.456;2023-04-02T15:25:04;8.35;;;2.17;;
67554;SDS011;54385;53.516;49.456;2023-04-02T15:30:23;10.05;;;2.10;;
67554;SDS011;54385;53.516;49.456;2023-04-02T15:32:58;8.23;;;2.55;;
67554;SDS011;54385;53.516;49.456;2023-04-02T15:41:44;14.60;;;2.10;;
67554;SDS011;54385;53.516;49.456;2023-04-02T15:44:30;15.48;;;2.22;;
67554;SDS011;54385;53.516;49.456;2023-04-02T15:55:21;12.80;;;2.78;;
67554;SDS011;54385;53.516;49.456;2023-04-02T16:06:37;11.88;;;1.92;;
67554;SDS011;54385;53.516;49.456;2023-04-02T16:09:27;6.93;;;1.65;;
67554;SDS011;54385;53.516;49.456;2023-04-02T16:12:13;6.63;;;2.08;;
67554;SDS011;54385;53.516;49.456;2023-04-02T16:14:42;7.32;;;2.22;;
67554;SDS011;54385;53.516;49.456;2023-04-02T16:17:14;10.38;;;2.60;;
67554;SDS011;54385;53.516;49.456;2023-04-02T16:19:57;7.00;;;2.60;;
67554;SDS011;54385;53.516;49.456;2023-04-02T16:22:38;12.60;;;4.07;;
67554;SDS011;54385;53.516;49.456;2023-04-02T16:27:49;12.82;;;3.60;;
67554;SDS011;54385;53.516;49.456;2023-04-02T16:30:53;13.43;;;3.85;;
67554;SDS011;54385;53.516;49.456;2023-04-02T16:36:21;12.85;;;3.22;;
67554;SDS011;54385;53.516;49.456;2023-04-02T16:39:19;12.27;;;3.20;;
67554;SDS011;54385;53.516;49.456;2023-04-02T16:42:02;9.73;;;2.65;;
67554;SDS011;54385;53.516;49.456;2023-04-02T16:50:52;9.23;;;2.30;;
67554;SDS011;54385;53.516;49.456;2023-04-02T17:04:51;8.00;;;2.55;;
67554;SDS011;54385;53.516;49.456;2023-04-02T17:07:26;10.27;;;2.80;;
67554;SDS011;54385;53.516;49.456;2023-04-02T17:16:00;13.10;;;3.95;;
67554;SDS011;54385;53.516;49.456;2023-04-02T17:18:27;19.55;;;3.28;;
67554;SDS011;54385;53.516;49.456;2023-04-02T17:20:54;12.32;;;3.47;;
67554;SDS011;54385;53.516;49.456;2023-04-02T17:26:05;16.90;;;3.75;;
67554;SDS011;54385;53.516;49.456;2023-04-02T17:28:33;22.33;;;5.15;;
67554;SDS011;54385;53.516;49.456;2023-04-02T17:31:04;17.40;;;4.88;;
67554;SDS011;54385;53.516;49.456;2023-04-02T17:33:39;17.30;;;3.78;;
67554;SDS011;54385;53.516;49.456;2023-04-02T17:41:51;21.85;;;4.38;;
67554;SDS011;54385;53.516;49.456;2023-04-02T18:14:18;28.50;;;4.55;;
67554;SDS011;54385;53.516;49.456;2023-04-02T18:30:52;32.45;;;4.45;;
67554;SDS011;54385;53.516;49.456;2023-04-02T18:33:56;22.80;;;4.78;;
67554;SDS011;54385;53.516;49.456;2023-04-02T18:42:18;30.02;;;6.10;;
67554;SDS011;54385;53.516;49.456;2023-04-02T18:44:57;21.23;;;5.40;;
67554;SDS011;54385;53.516;49.456;2023-04-02T18:47:35;21.70;;;5.78;;
67554;SDS011;54385;53.516;49.456;2023-04-02T18:50:34;27.05;;;5.57;;
67554;SDS011;54385;53.516;49.456;2023-04-02T18:53:10;37.58;;;5.70;;
67554;SDS011;54385;53.516;49.456;2023-04-02T18:55:40;22.98;;;5.72;;
67554;SDS011;54385;53.516;49.456;2023-04-02T18:58:31;31.55;;;5.72;;
67554;SDS011;54385;53.516;49.456;2023-04-02T19:00:59;33.90;;;6.28;;
67554;SDS011;54385;53.516;49.456;2023-04-02T19:03:31;22.13;;;5.97;;
67554;SDS011;54385;53.516;49.456;2023-04-02T19:06:03;32.92;;;6.93;;
67554;SDS011;54385;53.516;49.456;2023-04-02T19:08:50;24.90;;;6.43;;
67554;SDS011;54385;53.516;49.456;2023-04-02T19:11:23;25.20;;;7.50;;
67554;SDS011;54385;53.516;49.456;2023-04-02T19:13:54;28.35;;;6.70;;
67554;SDS011;54385;53.516;49.456;2023-04-02T19:16:28;27.95;;;6.32;;
67554;SDS011;54385;53.516;49.456;2023-04-02T19:35:29;33.67;;;6.55;;
67554;SDS011;54385;53.516;49.456;2023-04-02T19:43:35;20.70;;;7.15;;
67554;SDS011;54385;53.516;49.456;2023-04-02T19:46:01;21.17;;;6.07;;
67554;SDS011;54385;53.516;49.456;2023-04-02T19:51:04;23.52;;;6.32;;
67554;SDS011;54385;53.516;49.456;2023-04-02T19:53:31;26.23;;;7.25;;
67554;SDS011;54385;53.516;49.456;2023-04-02T19:55:58;25.10;;;6.70;;
67554;SDS011;54385;53.516;49.456;2023-04-02T20:00:53;29.52;;;7.32;;
67554;SDS011;54385;53.516;49.456;2023-04-02T20:03:21;26.48;;;8.27;;
67554;SDS011;54385;53.516;49.456;2023-04-02T20:05:47;28.63;;;8.73;;
67554;SDS011;54385;53.516;49.456;2023-04-02T20:08:14;34.13;;;9.00;;
67554;SDS011;54385;53.516;49.456;2023-04-02T20:10:41;22.27;;;8.27;;
67554;SDS011;54385;53.516;49.456;2023-04-02T20:13:09;20.13;;;8.50;;
67554;SDS011;54385;53.516;49.456;2023-04-02T20:15:37;28.70;;;8.75;;
67554;SDS011;54385;53.516;49.456;2023-04-02T20:18:04;34.90;;;8.63;;
67554;SDS011;54385;53.516;49.456;2023-04-02T20:20:31;34.97;;;9.88;;
67554;SDS011;54385;53.516;49.456;2023-04-02T20:22:58;33.53;;;10.43;;
67554;SDS011;54385;53.516;49.456;2023-04-02T20:25:25;36.30;;;8.98;;
67554;SDS011;54385;53.516;49.456;2023-04-02T20:27:52;28.45;;;9.07;;
67554;SDS011;54385;53.516;49.456;2023-04-02T20:30:19;37.67;;;12.25;;
67554;SDS011;54385;53.516;49.456;2023-04-02T20:32:45;49.90;;;10.88;;